createdAt,value
2023-04-02T00:26:55.517Z,8.00
2023-04-02T00:40:44.056Z,7.91
2023-04-02T01:01:57.492Z,7.95
2023-04-02T01:08:16.621Z,7.93
2023-04-02T01:15:17.728Z,7.89
2023-04-02T01:21:37.941Z,7.75
2023-04-02T01:40:46.922Z,7.54
2023-04-02T02:01:18.887Z,7.68
2023-04-02T02:07:24.094Z,7.76
2023-04-02T02:14:30.721Z,7.89
2023-04-02T02:28:05.888Z,7.79
2023-04-02T02:34:55.087Z,7.86
2023-04-02T02:41:45.305Z,7.79
2023-04-02T03:03:44.114Z,7.62
2023-04-02T03:09:53.598Z,7.55
2023-04-02T03:16:09.738Z,7.60
2023-04-02T03:22:36.629Z,7.67
2023-04-02T03:28:37.499Z,7.55
2023-04-02T03:34:38.518Z,7.77
2023-04-02T03:40:52.900Z,7.77
2023-04-02T03:47:19.108Z,7.74
2023-04-02T03:53:16.323Z,7.66
2023-04-02T03:59:25.876Z,7.74
2023-04-02T04:05:30.998Z,7.62
2023-04-02T04:11:42.953Z,7.65
2023-04-02T04:18:47.407Z,7.53
2023-04-02T04:25:12.662Z,7.40
2023-04-02T04:55:25.549Z,7.42
2023-04-02T05:24:57.152Z,7.34
2023-04-02T05:31:26.399Z,7.68
2023-04-02T05:37:50.765Z,7.53
2023-04-02T06:04:30.460Z,7.16
2023-04-02T06:10:25.260Z,7.07
2023-04-02T06:16:22.215Z,7.06
2023-04-02T06:22:28.490Z,7.10
2023-04-02T06:28:32.167Z,7.05
2023-04-02T06:34:40.862Z,6.89
2023-04-02T06:40:35.974Z,6.91
2023-04-02T06:46:46.103Z,6.97
2023-04-02T06:52:46.961Z,7.07
2023-04-02T06:58:37.319Z,6.97
2023-04-02T07:04:28.068Z,7.04
2023-04-02T07:10:16.789Z,7.11
2023-04-02T07:16:23.734Z,7.39
2023-04-02T07:29:44.032Z,7.43
2023-04-02T07:35:31.663Z,7.48
2023-04-02T07:41:58.364Z,7.18
2023-04-02T07:48:53.501Z,7.27
2023-04-02T07:54:52.610Z,7.26
2023-04-02T08:00:45.317Z,7.30
2023-04-02T08:06:32.417Z,7.28
2023-04-02T08:12:22.054Z,7.25
2023-04-02T08:18:17.361Z,7.36
2023-04-02T08:24:04.703Z,7.41
2023-04-02T08:29:55.479Z,7.56
2023-04-02T08:35:47.311Z,7.44
2023-04-02T08:41:45.911Z,7.14
2023-04-02T08:47:38.225Z,7.15
2023-04-02T08:53:29.776Z,7.20
2023-04-02T08:59:19.501Z,7.27
2023-04-02T09:05:15.785Z,7.38
2023-04-02T09:11:07.594Z,7.40
2023-04-02T09:17:04.705Z,7.53
2023-04-02T09:22:53.359Z,7.71
2023-04-02T09:28:41.853Z,7.81
2023-04-02T09:34:30.732Z,8.00
2023-04-02T09:40:29.112Z,7.96
2023-04-02T09:46:26.026Z,8.18
2023-04-02T09:52:30.200Z,8.06
2023-04-02T10:04:51.929Z,8.47
2023-04-02T10:10:44.193Z,8.67
2023-04-02T10:16:57.341Z,8.79
2023-04-02T10:22:52.080Z,8.88
2023-04-02T10:29:14.277Z,9.34
2023-04-02T10:35:24.215Z,9.25
2023-04-02T10:41:31.982Z,9.14
2023-04-02T10:54:43.670Z,9.44
2023-04-02T11:00:46.664Z,9.64
2023-04-02T11:07:07.584Z,9.69
2023-04-02T11:13:05.645Z,9.92
2023-04-02T11:19:23.831Z,10.61
2023-04-02T11:25:22.299Z,10.36
2023-04-02T11:31:28.144Z,9.88
2023-04-02T11:37:44.970Z,9.73
2023-04-02T11:43:35.970Z,9.89
2023-04-02T11:49:40.977Z,9.59
2023-04-02T11:55:32.340Z,9.75
2023-04-02T12:01:25.494Z,9.93
2023-04-02T12:07:39.995Z,10.13
2023-04-02T12:13:39.414Z,10.28
2023-04-02T12:19:38.356Z,10.39
2023-04-02T12:26:10.676Z,10.18
2023-04-02T12:32:00.098Z,10.24
2023-04-02T12:37:52.962Z,10.69
2023-04-02T12:43:41.153Z,10.34
2023-04-02T12:49:42.935Z,11.03
2023-04-02T12:55:37.389Z,10.80
2023-04-02T13:08:35.603Z,11.08
2023-04-02T13:14:42.097Z,11.43
2023-04-02T13:20:45.227Z,10.97
2023-04-02T13:26:32.014Z,11.31
2023-04-02T13:32:20.177Z,11.51
2023-04-02T13:38:07.211Z,11.53
2023-04-02T13:44:31.391Z,11.54
2023-04-02T13:50:57.027Z,10.96
2023-04-02T14:03:12.336Z,11.38
2023-04-02T14:09:34.667Z,11.43
2023-04-02T14:16:19.368Z,11.78
2023-04-02T14:22:52.072Z,11.66
2023-04-02T14:30:36.966Z,11.40
2023-04-02T14:36:48.691Z,11.41
2023-04-02T14:43:03.684Z,11.70
2023-04-02T15:02:59.733Z,11.74
2023-04-02T15:09:15.465Z,11.42
2023-04-02T15:15:45.698Z,11.39
2023-04-02T15:21:57.564Z,11.51
2023-04-02T15:28:28.198Z,11.52
2023-04-02T15:34:34.108Z,11.63
2023-04-02T15:41:04.137Z,11.40
2023-04-02T15:47:24.434Z,11.60
2023-04-02T15:53:27.000Z,11.45
2023-04-02T15:59:17.772Z,11.40
2023-04-02T16:05:23.312Z,11.58
2023-04-02T16:11:12.796Z,11.44
2023-04-02T16:17:17.666Z,11.18
2023-04-02T16:23:21.186Z,11.35
2023-04-02T16:29:20.298Z,11.45
2023-04-02T16:35:43.104Z,11.33
2023-04-02T16:41:36.330Z,11.34
2023-04-02T16:47:26.105Z,11.20
2023-04-02T16:53:24.189Z,11.01
2023-04-02T16:59:20.330Z,10.94
2023-04-02T17:05:34.424Z,10.80
2023-04-02T17:11:26.092Z,10.74
2023-04-02T17:17:15.744Z,10.70
2023-04-02T17:23:05.719Z,10.81
2023-04-02T17:28:55.111Z,10.56
2023-04-02T17:34:42.139Z,10.47
2023-04-02T17:40:33.853Z,10.39
2023-04-02T17:46:39.416Z,10.22
2023-04-02T17:52:36.015Z,10.14
2023-04-02T17:58:58.986Z,10.24
2023-04-02T18:04:48.941Z,10.15
2023-04-02T18:10:44.453Z,10.04
2023-04-02T18:16:59.580Z,9.73
2023-04-02T18:23:01.133Z,9.65
2023-04-02T18:29:25.792Z,9.65
2023-04-02T18:35:22.627Z,9.42
2023-04-02T18:41:48.375Z,9.43
2023-04-02T18:47:59.285Z,9.26
2023-04-02T18:54:09.758Z,9.30
2023-04-02T19:00:25.822Z,9.03
2023-04-02T19:06:22.226Z,8.79
2023-04-02T19:12:22.308Z,8.45
2023-04-02T19:18:32.135Z,8.04
2023-04-02T19:24:22.743Z,8.02
2023-04-02T19:30:28.550Z,7.88
2023-04-02T19:36:41.024Z,7.74
2023-04-02T19:42:45.617Z,7.61
2023-04-02T19:48:52.357Z,7.74
2023-04-02T19:54:41.824Z,7.46
2023-04-02T20:00:28.921Z,7.45
2023-04-02T20:06:17.024Z,7.30
2023-04-02T20:12:05.694Z,7.19
2023-04-02T20:17:53.391Z,7.00
2023-04-02T20:23:40.795Z,7.04
2023-04-02T20:29:29.471Z,7.26
2023-04-02T20:35:16.326Z,7.16
2023-04-02T20:41:05.191Z,6.96
2023-04-02T20:46:52.660Z,6.92
2023-04-02T20:52:44.538Z,6.94
2023-04-02T20:58:33.195Z,6.78
2023-04-02T21:04:22.766Z,6.80
2023-04-02T21:10:10.480Z,6.79
2023-04-02T21:16:01.542Z,6.56
2023-04-02T21:21:48.774Z,6.41
2023-04-02T21:27:37.273Z,6.65
2023-04-02T21:33:27.901Z,6.52
2023-04-02T21:39:25.771Z,6.30
2023-04-02T21:45:14.604Z,6.07
2023-04-02T21:51:14.385Z,6.08
2023-04-02T21:57:06.192Z,5.90
2023-04-02T22:03:03.456Z,5.85
2023-04-02T22:08:57.024Z,5.88
2023-04-02T22:14:46.795Z,5.82
2023-04-02T22:20:38.853Z,5.62
2023-04-02T22:26:33.852Z,5.63
2023-04-02T22:32:21.880Z,5.37
2023-04-02T22:38:09.304Z,5.37
2023-04-02T22:43:57.107Z,5.23
2023-04-02T22:49:47.337Z,5.27
2023-04-02T22:55:35.559Z,5.34
2023-04-02T23:01:35.063Z,5.14
2023-04-02T23:07:22.844Z,5.18
2023-04-02T23:13:26.895Z,5.02
2023-04-02T23:19:17.960Z,5.08
2023-04-02T23:25:06.296Z,4.96
2023-04-02T23:30:53.645Z,5.07
2023-04-02T23:36:41.480Z,5.01
2023-04-02T23:42:28.975Z,4.99
2023-04-02T23:48:17.364Z,4.97
2023-04-02T23:54:04.728Z,4.98
2023-04-02T23:59:53.585Z,4.97
